sensor_id;sensor_type;location;lat;lon;timestamp;P1;durP1;ratioP1;P2;durP2;ratioP2
67712;SDS011;67640;55.784;49.138;2024-03-23T00:55:22;18.57;;;4.97;;
67712;SDS011;67640;55.784;49.138;2024-03-23T01:00:26;14.15;;;4.50;;
67712;SDS011;67640;55.784;49.138;2024-03-23T01:05:45;13.98;;;4.53;;
67712;SDS011;67640;55.784;49.138;2024-03-23T01:16:14;12.60;;;4.55;;
67712;SDS011;67640;55.784;49.138;2024-03-23T01:21:33;15.00;;;5.10;;
67712;SDS011;67640;55.784;49.138;2024-03-23T01:26:38;11.50;;;5.10;;
67712;SDS011;67640;55.784;49.138;2024-03-23T01:31:57;19.98;;;4.75;;
67712;SDS011;67640;55.784;49.138;2024-03-23T01:37:16;16.37;;;4.12;;
67712;SDS011;67640;55.784;49.138;2024-03-23T01:42:20;13.78;;;4.78;;
67712;SDS011;67640;55.784;49.138;2024-03-23T01:47:39;14.17;;;4.53;;
67712;SDS011;67640;55.784;49.138;2024-03-23T01:52:44;12.65;;;5.12;;
67712;SDS011;67640;55.784;49.138;2024-03-23T01:57:48;13.70;;;4.62;;
67712;SDS011;67640;55.784;49.138;2024-03-23T02:02:52;12.13;;;4.50;;
67712;SDS011;67640;55.784;49.138;2024-03-23T02:07:57;12.10;;;4.75;;
67712;SDS011;67640;55.784;49.138;2024-03-23T02:13:17;16.27;;;4.80;;
67712;SDS011;67640;55.784;49.138;2024-03-23T02:18:22;14.07;;;4.85;;
67712;SDS011;67640;55.784;49.138;2024-03-23T02:23:45;16.87;;;5.58;;
67712;SDS011;67640;55.784;49.138;2024-03-23T02:28:49;16.37;;;4.95;;
67712;SDS011;67640;55.784;49.138;2024-03-23T02:34:08;16.65;;;4.87;;
67712;SDS011;67640;55.784;49.138;2024-03-23T02:39:28;15.80;;;4.90;;
67712;SDS011;67640;55.784;49.138;2024-03-23T02:44:32;19.40;;;5.35;;
67712;SDS011;67640;55.784;49.138;2024-03-23T02:49:36;18.12;;;5.55;;
67712;SDS011;67640;55.784;49.138;2024-03-23T02:54:54;21.23;;;5.83;;
67712;SDS011;67640;55.784;49.138;2024-03-23T02:59:59;17.45;;;6.12;;
67712;SDS011;67640;55.784;49.138;2024-03-23T03:05:18;19.70;;;6.10;;
67712;SDS011;67640;55.784;49.138;2024-03-23T03:10:37;24.70;;;6.60;;
67712;SDS011;67640;55.784;49.138;2024-03-23T03:15:42;24.45;;;6.35;;
67712;SDS011;67640;55.784;49.138;2024-03-23T03:21:01;16.47;;;6.37;;
67712;SDS011;67640;55.784;49.138;2024-03-23T03:26:06;19.25;;;6.10;;
67712;SDS011;67640;55.784;49.138;2024-03-23T03:31:24;18.70;;;5.83;;
67712;SDS011;67640;55.784;49.138;2024-03-23T03:36:29;23.50;;;6.62;;
67712;SDS011;67640;55.784;49.138;2024-03-23T03:41:33;26.10;;;6.35;;
67712;SDS011;67640;55.784;49.138;2024-03-23T03:46:37;17.95;;;6.10;;
67712;SDS011;67640;55.784;49.138;2024-03-23T03:51:42;18.00;;;5.73;;
67712;SDS011;67640;55.784;49.138;2024-03-23T03:56:46;18.25;;;6.17;;
67712;SDS011;67640;55.784;49.138;2024-03-23T04:02:05;16.82;;;6.30;;
67712;SDS011;67640;55.784;49.138;2024-03-23T04:07:09;19.20;;;5.78;;
67712;SDS011;67640;55.784;49.138;2024-03-23T04:12:29;19.35;;;6.33;;
67712;SDS011;67640;55.784;49.138;2024-03-23T04:17:49;15.35;;;5.92;;
67712;SDS011;67640;55.784;49.138;2024-03-23T04:22:53;20.93;;;7.00;;
67712;SDS011;67640;55.784;49.138;2024-03-23T04:27:58;19.30;;;6.25;;
67712;SDS011;67640;55.784;49.138;2024-03-23T04:33:02;20.87;;;5.60;;
67712;SDS011;67640;55.784;49.138;2024-03-23T04:38:07;20.48;;;5.25;;
67712;SDS011;67640;55.784;49.138;2024-03-23T04:43:26;18.45;;;5.70;;
67712;SDS011;67640;55.784;49.138;2024-03-23T04:48:30;15.40;;;4.60;;
67712;SDS011;67640;55.784;49.138;2024-03-23T04:53:50;20.50;;;5.05;;
67712;SDS011;67640;55.784;49.138;2024-03-23T04:59:07;20.30;;;5.37;;
67712;SDS011;67640;55.784;49.138;2024-03-23T05:04:12;15.77;;;5.43;;
67712;SDS011;67640;55.784;49.138;2024-03-23T05:09:16;25.32;;;6.72;;
67712;SDS011;67640;55.784;49.138;2024-03-23T05:14:21;26.23;;;7.05;;
67712;SDS011;67640;55.784;49.138;2024-03-23T05:19:39;21.67;;;6.80;;
67712;SDS011;67640;55.784;49.138;2024-03-23T05:24:44;19.80;;;6.22;;
67712;SDS011;67640;55.784;49.138;2024-03-23T05:29:49;25.82;;;7.00;;
67712;SDS011;67640;55.784;49.138;2024-03-23T05:34:53;25.83;;;7.47;;
67712;SDS011;67640;55.784;49.138;2024-03-23T05:40:13;22.22;;;7.33;;
67712;SDS011;67640;55.784;49.138;2024-03-23T05:45:34;26.40;;;7.00;;
67712;SDS011;67640;55.784;49.138;2024-03-23T05:50:39;27.75;;;6.87;;
67712;SDS011;67640;55.784;49.138;2024-03-23T05:55:43;21.50;;;6.78;;
67712;SDS011;67640;55.784;49.138;2024-03-23T06:01:02;19.20;;;6.15;;
67712;SDS011;67640;55.784;49.138;2024-03-23T06:06:07;23.45;;;6.35;;
67712;SDS011;67640;55.784;49.138;2024-03-23T06:11:25;13.55;;;4.08;;
67712;SDS011;67640;55.784;49.138;2024-03-23T06:16:29;10.72;;;3.72;;
67712;SDS011;67640;55.784;49.138;2024-03-23T06:21:34;15.53;;;3.70;;
67712;SDS011;67640;55.784;49.138;2024-03-23T06:26:39;15.80;;;4.10;;
67712;SDS011;67640;55.784;49.138;2024-03-23T06:31:43;14.00;;;4.43;;
67712;SDS011;67640;55.784;49.138;2024-03-23T06:36:49;15.05;;;3.75;;
67712;SDS011;67640;55.784;49.138;2024-03-23T06:41:54;15.58;;;4.30;;
67712;SDS011;67640;55.784;49.138;2024-03-23T06:47:13;19.97;;;3.67;;
67712;SDS011;67640;55.784;49.138;2024-03-23T06:52:18;11.28;;;4.00;;
67712;SDS011;67640;55.784;49.138;2024-03-23T06:57:22;17.77;;;3.70;;
67712;SDS011;67640;55.784;49.138;2024-03-23T07:02:41;13.78;;;3.37;;
67712;SDS011;67640;55.784;49.138;2024-03-23T07:07:46;12.98;;;3.50;;
67712;SDS011;67640;55.784;49.138;2024-03-23T07:13:05;22.17;;;4.03;;
67712;SDS011;67640;55.784;49.138;2024-03-23T07:18:09;16.42;;;4.05;;
67712;SDS011;67640;55.784;49.138;2024-03-23T07:23:14;20.23;;;3.73;;
67712;SDS011;67640;55.784;49.138;2024-03-23T07:28:33;20.95;;;4.80;;
67712;SDS011;67640;55.784;49.138;2024-03-23T07:33:51;9.18;;;3.47;;
67712;SDS011;67640;55.784;49.138;2024-03-23T07:38:56;11.45;;;2.90;;
67712;SDS011;67640;55.784;49.138;2024-03-23T07:44:00;9.13;;;2.67;;
67712;SDS011;67640;55.784;49.138;2024-03-23T07:49:04;9.70;;;3.02;;
67712;SDS011;67640;55.784;49.138;2024-03-23T07:54:10;15.90;;;3.27;;
67712;SDS011;67640;55.784;49.138;2024-03-23T07:59:46;10.07;;;2.17;;
67712;SDS011;67640;55.784;49.138;2024-03-23T08:04:50;6.97;;;2.20;;
67712;SDS011;67640;55.784;49.138;2024-03-23T08:09:55;8.53;;;2.00;;
67712;SDS011;67640;55.784;49.138;2024-03-23T08:14:59;8.90;;;2.90;;
67712;SDS011;67640;55.784;49.138;2024-03-23T08:20:17;11.57;;;2.42;;
67712;SDS011;67640;55.784;49.138;2024-03-23T08:25:22;10.65;;;2.75;;
67712;SDS011;67640;55.784;49.138;2024-03-23T08:30:41;10.48;;;2.55;;
67712;SDS011;67640;55.784;49.138;2024-03-23T08:36:01;10.93;;;2.62;;
67712;SDS011;67640;55.784;49.138;2024-03-23T08:41:21;8.20;;;2.20;;
67712;SDS011;67640;55.784;49.138;2024-03-23T08:46:40;13.32;;;2.42;;
67712;SDS011;67640;55.784;49.138;2024-03-23T08:51:44;6.58;;;1.50;;
67712;SDS011;67640;55.784;49.138;2024-03-23T08:57:02;6.60;;;1.90;;
67712;SDS011;67640;55.784;49.138;2024-03-23T09:02:06;8.03;;;2.65;;
67712;SDS011;67640;55.784;49.138;2024-03-23T09:07:26;7.87;;;2.30;;
67712;SDS011;67640;55.784;49.138;2024-03-23T09:12:30;10.60;;;3.22;;
67712;SDS011;67640;55.784;49.138;2024-03-23T09:17:35;11.85;;;3.55;;
67712;SDS011;67640;55.784;49.138;2024-03-23T09:22:53;9.30;;;2.33;;
67712;SDS011;67640;55.784;49.138;2024-03-23T09:28:12;9.63;;;2.60;;
67712;SDS011;67640;55.784;49.138;2024-03-23T09:33:16;11.90;;;3.10;;
67712;SDS011;67640;55.784;49.138;2024-03-23T09:38:21;10.55;;;2.50;;
67712;SDS011;67640;55.784;49.138;2024-03-23T09:43:39;9.93;;;2.55;;
67712;SDS011;67640;55.784;49.138;2024-03-23T09:48:43;14.33;;;3.27;;
67712;SDS011;67640;55.784;49.138;2024-03-23T09:53:49;9.30;;;2.10;;
67712;SDS011;67640;55.784;49.138;2024-03-23T09:59:09;8.00;;;2.25;;
67712;SDS011;67640;55.784;49.138;2024-03-23T10:04:35;7.45;;;2.52;;
67712;SDS011;67640;55.784;49.138;2024-03-23T10:09:33;7.42;;;2.20;;
67712;SDS011;67640;55.784;49.138;2024-03-23T10:14:37;10.13;;;2.77;;
67712;SDS011;67640;55.784;49.138;2024-03-23T10:19:42;11.50;;;2.83;;
67712;SDS011;67640;55.784;49.138;2024-03-23T10:24:47;8.58;;;2.50;;
67712;SDS011;67640;55.784;49.138;2024-03-23T10:35:30;15.00;;;5.50;;
67712;SDS011;67640;55.784;49.138;2024-03-23T10:40:35;19.45;;;6.70;;
67712;SDS011;67640;55.784;49.138;2024-03-23T10:45:54;29.02;;;9.60;;
67712;SDS011;67640;55.784;49.138;2024-03-23T10:50:58;13.47;;;4.80;;
67712;SDS011;67640;55.784;49.138;2024-03-23T10:56:17;14.38;;;5.40;;
67712;SDS011;67640;55.784;49.138;2024-03-23T11:01:23;10.00;;;3.45;;
67712;SDS011;67640;55.784;49.138;2024-03-23T11:06:42;14.27;;;4.17;;
67712;SDS011;67640;55.784;49.138;2024-03-23T11:17:41;8.10;;;2.87;;
67712;SDS011;67640;55.784;49.138;2024-03-23T11:22:46;13.83;;;3.10;;
67712;SDS011;67640;55.784;49.138;2024-03-23T11:33:29;18.67;;;3.77;;
67712;SDS011;67640;55.784;49.138;2024-03-23T11:38:36;12.47;;;2.70;;
67712;SDS011;67640;55.784;49.138;2024-03-23T11:43:40;9.03;;;2.92;;
67712;SDS011;67640;55.784;49.138;2024-03-23T11:54:26;8.00;;;2.23;;
67712;SDS011;67640;55.784;49.138;2024-03-23T11:59:45;11.22;;;2.47;;
67712;SDS011;67640;55.784;49.138;2024-03-23T12:04:50;7.30;;;2.30;;
67712;SDS011;67640;55.784;49.138;2024-03-23T12:10:09;7.80;;;2.60;;
67712;SDS011;67640;55.784;49.138;2024-03-23T12:15:27;10.00;;;2.60;;
67712;SDS011;67640;55.784;49.138;2024-03-23T12:20:31;10.00;;;2.65;;
67712;SDS011;67640;55.784;49.138;2024-03-23T12:25:50;8.58;;;2.35;;
67712;SDS011;67640;55.784;49.138;2024-03-23T12:31:10;10.80;;;2.80;;
67712;SDS011;67640;55.784;49.138;2024-03-23T12:36:14;10.97;;;3.00;;
67712;SDS011;67640;55.784;49.138;2024-03-23T12:41:33;8.78;;;2.77;;
67712;SDS011;67640;55.784;49.138;2024-03-23T12:46:38;15.45;;;4.78;;
67712;SDS011;67640;55.784;49.138;2024-03-23T12:51:56;6.63;;;2.30;;
67712;SDS011;67640;55.784;49.138;2024-03-23T12:57:00;9.65;;;2.70;;
67712;SDS011;67640;55.784;49.138;2024-03-23T13:02:20;16.87;;;2.83;;
67712;SDS011;67640;55.784;49.138;2024-03-23T13:07:39;9.03;;;2.70;;
67712;SDS011;67640;55.784;49.138;2024-03-23T13:12:58;6.05;;;2.33;;
67712;SDS011;67640;55.784;49.138;2024-03-23T13:18:03;13.43;;;2.90;;
67712;SDS011;67640;55.784;49.138;2024-03-23T13:23:07;9.67;;;2.63;;
67712;SDS011;67640;55.784;49.138;2024-03-23T13:28:26;10.85;;;2.72;;
67712;SDS011;67640;55.784;49.138;2024-03-23T13:33:45;8.28;;;2.40;;
67712;SDS011;67640;55.784;49.138;2024-03-23T13:39:05;11.73;;;2.33;;
67712;SDS011;67640;55.784;49.138;2024-03-23T13:49:47;19.87;;;3.58;;
67712;SDS011;67640;55.784;49.138;2024-03-23T13:54:52;13.33;;;3.57;;
67712;SDS011;67640;55.784;49.138;2024-03-23T13:59:56;11.80;;;4.00;;
67712;SDS011;67640;55.784;49.138;2024-03-23T14:05:01;11.87;;;4.27;;
67712;SDS011;67640;55.784;49.138;2024-03-23T14:10:08;8.20;;;2.90;;
67712;SDS011;67640;55.784;49.138;2024-03-23T14:15:13;7.25;;;2.50;;
67712;SDS011;67640;55.784;49.138;2024-03-23T14:20:17;10.67;;;2.97;;
67712;SDS011;67640;55.784;49.138;2024-03-23T14:25:36;7.45;;;2.02;;
67712;SDS011;67640;55.784;49.138;2024-03-23T14:30:56;9.95;;;1.95;;
67712;SDS011;67640;55.784;49.138;2024-03-23T14:36:01;5.97;;;1.80;;
67712;SDS011;67640;55.784;49.138;2024-03-23T14:41:05;9.10;;;2.75;;
67712;SDS011;67640;55.784;49.138;2024-03-23T14:46:10;7.40;;;2.15;;
67712;SDS011;67640;55.784;49.138;2024-03-23T14:51:15;8.03;;;2.33;;
67712;SDS011;67640;55.784;49.138;2024-03-23T14:56:32;9.03;;;2.47;;
67712;SDS011;67640;55.784;49.138;2024-03-23T15:01:37;9.85;;;2.98;;
67712;SDS011;67640;55.784;49.138;2024-03-23T15:06:41;7.37;;;2.43;;
67712;SDS011;67640;55.784;49.138;2024-03-23T15:12:01;4.75;;;1.60;;
67712;SDS011;67640;55.784;49.138;2024-03-23T15:17:05;8.88;;;2.20;;
67712;SDS011;67640;55.784;49.138;2024-03-23T15:22:23;7.80;;;1.52;;
67712;SDS011;67640;55.784;49.138;2024-03-23T15:27:27;5.70;;;1.90;;
67712;SDS011;67640;55.784;49.138;2024-03-23T15:32:32;5.47;;;1.80;;
67712;SDS011;67640;55.784;49.138;2024-03-23T15:37:37;7.93;;;1.97;;
67712;SDS011;67640;55.784;49.138;2024-03-23T15:42:42;11.48;;;1.90;;
67712;SDS011;67640;55.784;49.138;2024-03-23T15:47:46;8.10;;;2.17;;
67712;SDS011;67640;55.784;49.138;2024-03-23T15:53:05;6.13;;;1.63;;
67712;SDS011;67640;55.784;49.138;2024-03-23T15:58:09;7.55;;;2.98;;
67712;SDS011;67640;55.784;49.138;2024-03-23T16:03:15;7.07;;;2.10;;
67712;SDS011;67640;55.784;49.138;2024-03-23T16:08:19;4.40;;;1.67;;
67712;SDS011;67640;55.784;49.138;2024-03-23T16:13:38;10.80;;;2.15;;
67712;SDS011;67640;55.784;49.138;2024-03-23T16:18:57;12.00;;;1.70;;
67712;SDS011;67640;55.784;49.138;2024-03-23T16:24:01;8.20;;;2.00;;
67712;SDS011;67640;55.784;49.138;2024-03-23T16:29:21;11.00;;;2.13;;
67712;SDS011;67640;55.784;49.138;2024-03-23T16:34:25;8.83;;;2.00;;
67712;SDS011;67640;55.784;49.138;2024-03-23T16:39:33;12.73;;;2.20;;
67712;SDS011;67640;55.784;49.138;2024-03-23T16:44:52;7.07;;;2.30;;
67712;SDS011;67640;55.784;49.138;2024-03-23T16:55:34;7.95;;;2.60;;
67712;SDS011;67640;55.784;49.138;2024-03-23T17:00:38;7.23;;;2.30;;
67712;SDS011;67640;55.784;49.138;2024-03-23T17:05:43;8.60;;;2.60;;
67712;SDS011;67640;55.784;49.138;2024-03-23T17:10:47;8.85;;;2.95;;
67712;SDS011;67640;55.784;49.138;2024-03-23T17:15:52;8.73;;;2.80;;
67712;SDS011;67640;55.784;49.138;2024-03-23T17:21:11;12.00;;;3.35;;
67712;SDS011;67640;55.784;49.138;2024-03-23T17:26:16;8.70;;;2.43;;
67712;SDS011;67640;55.784;49.138;2024-03-23T17:31:35;6.80;;;2.00;;
67712;SDS011;67640;55.784;49.138;2024-03-23T17:36:54;8.63;;;2.50;;
67712;SDS011;67640;55.784;49.138;2024-03-23T17:41:58;7.37;;;1.90;;
67712;SDS011;67640;55.784;49.138;2024-03-23T17:47:03;7.78;;;1.80;;
67712;SDS011;67640;55.784;49.138;2024-03-23T17:52:20;6.83;;;2.02;;
67712;SDS011;67640;55.784;49.138;2024-03-23T17:57:25;9.70;;;2.17;;
67712;SDS011;67640;55.784;49.138;2024-03-23T18:02:44;10.32;;;2.22;;
67712;SDS011;67640;55.784;49.138;2024-03-23T18:08:03;6.20;;;2.30;;
67712;SDS011;67640;55.784;49.138;2024-03-23T18:13:22;5.70;;;2.37;;
67712;SDS011;67640;55.784;49.138;2024-03-23T18:18:27;7.15;;;2.62;;
67712;SDS011;67640;55.784;49.138;2024-03-23T18:23:32;10.07;;;2.67;;
67712;SDS011;67640;55.784;49.138;2024-03-23T18:28:51;6.83;;;2.77;;
67712;SDS011;67640;55.784;49.138;2024-03-23T18:33:55;5.60;;;2.45;;
67712;SDS011;67640;55.784;49.138;2024-03-23T18:39:00;9.80;;;3.60;;
67712;SDS011;67640;55.784;49.138;2024-03-23T18:44:05;12.13;;;4.05;;
67712;SDS011;67640;55.784;49.138;2024-03-23T18:49:09;10.32;;;3.90;;
67712;SDS011;67640;55.784;49.138;2024-03-23T18:54:28;8.83;;;3.10;;
67712;SDS011;67640;55.784;49.138;2024-03-23T18:59:48;10.53;;;3.42;;
67712;SDS011;67640;55.784;49.138;2024-03-23T19:04:53;9.43;;;3.30;;
67712;SDS011;67640;55.784;49.138;2024-03-23T19:10:12;7.15;;;2.77;;
67712;SDS011;67640;55.784;49.138;2024-03-23T19:15:17;7.70;;;3.17;;
67712;SDS011;67640;55.784;49.138;2024-03-23T19:20:36;6.87;;;2.62;;
67712;SDS011;67640;55.784;49.138;2024-03-23T19:31:15;7.45;;;2.87;;
67712;SDS011;67640;55.784;49.138;2024-03-23T19:36:19;7.53;;;2.37;;
67712;SDS011;67640;55.784;49.138;2024-03-23T19:41:24;10.48;;;2.75;;
67712;SDS011;67640;55.784;49.138;2024-03-23T19:46:28;8.40;;;2.53;;
67712;SDS011;67640;55.784;49.138;2024-03-23T19:51:32;6.12;;;2.70;;
67712;SDS011;67640;55.784;49.138;2024-03-23T19:56:52;7.80;;;2.47;;
67712;SDS011;67640;55.784;49.138;2024-03-23T20:01:56;9.80;;;2.50;;
67712;SDS011;67640;55.784;49.138;2024-03-23T20:07:15;7.33;;;2.70;;
67712;SDS011;67640;55.784;49.138;2024-03-23T20:12:23;7.20;;;2.77;;
67712;SDS011;67640;55.784;49.138;2024-03-23T20:17:42;9.65;;;3.10;;
67712;SDS011;67640;55.784;49.138;2024-03-23T20:23:01;18.07;;;2.90;;
67712;SDS011;67640;55.784;49.138;2024-03-23T20:28:05;8.27;;;2.77;;
67712;SDS011;67640;55.784;49.138;2024-03-23T20:33:25;9.38;;;3.10;;
67712;SDS011;67640;55.784;49.138;2024-03-23T20:38:30;12.07;;;3.63;;
67712;SDS011;67640;55.784;49.138;2024-03-23T20:43:49;10.48;;;3.50;;
67712;SDS011;67640;55.784;49.138;2024-03-23T20:49:08;8.43;;;2.60;;
67712;SDS011;67640;55.784;49.138;2024-03-23T20:54:12;6.77;;;2.40;;
67712;SDS011;67640;55.784;49.138;2024-03-23T20:59:32;8.15;;;3.12;;
67712;SDS011;67640;55.784;49.138;2024-03-23T21:04:36;6.63;;;2.60;;
67712;SDS011;67640;55.784;49.138;2024-03-23T21:09:55;9.63;;;3.10;;
67712;SDS011;67640;55.784;49.138;2024-03-23T21:14:59;10.08;;;3.00;;
67712;SDS011;67640;55.784;49.138;2024-03-23T21:20:05;10.97;;;3.10;;
67712;SDS011;67640;55.784;49.138;2024-03-23T21:25:24;12.15;;;3.67;;
67712;SDS011;67640;55.784;49.138;2024-03-23T21:30:28;10.10;;;3.30;;
67712;SDS011;67640;55.784;49.138;2024-03-23T21:41:12;14.18;;;3.50;;
67712;SDS011;67640;55.784;49.138;2024-03-23T21:46:17;7.47;;;3.05;;
67712;SDS011;67640;55.784;49.138;2024-03-23T21:51:21;9.03;;;3.17;;
67712;SDS011;67640;55.784;49.138;2024-03-23T21:56:27;13.10;;;3.98;;
67712;SDS011;67640;55.784;49.138;2024-03-23T22:01:31;8.13;;;3.60;;
67712;SDS011;67640;55.784;49.138;2024-03-23T22:06:36;8.40;;;3.52;;
67712;SDS011;67640;55.784;49.138;2024-03-23T22:11:40;12.25;;;4.47;;
67712;SDS011;67640;55.784;49.138;2024-03-23T22:16:44;12.07;;;4.70;;
67712;SDS011;67640;55.784;49.138;2024-03-23T22:22:04;11.08;;;4.55;;
67712;SDS011;67640;55.784;49.138;2024-03-23T22:27:08;12.33;;;4.37;;
67712;SDS011;67640;55.784;49.138;2024-03-23T22:32:27;11.83;;;4.63;;
67712;SDS011;67640;55.784;49.138;2024-03-23T22:37:32;10.03;;;4.47;;
67712;SDS011;67640;55.784;49.138;2024-03-23T22:42:36;13.87;;;4.83;;
67712;SDS011;67640;55.784;49.138;2024-03-23T22:47:41;10.48;;;4.17;;
67712;SDS011;67640;55.784;49.138;2024-03-23T22:53:00;10.75;;;4.80;;
67712;SDS011;67640;55.784;49.138;2024-03-23T22:58:04;11.47;;;5.07;;
67712;SDS011;67640;55.784;49.138;2024-03-23T23:03:09;12.90;;;4.72;;
67712;SDS011;67640;55.784;49.138;2024-03-23T23:08:14;12.60;;;4.63;;
67712;SDS011;67640;55.784;49.138;2024-03-23T23:13:33;10.80;;;5.47;;
67712;SDS011;67640;55.784;49.138;2024-03-23T23:18:52;13.72;;;5.40;;
67712;SDS011;67640;55.784;49.138;2024-03-23T23:23:57;12.97;;;5.03;;
67712;SDS011;67640;55.784;49.138;2024-03-23T23:29:01;12.95;;;5.62;;
67712;SDS011;67640;55.784;49.138;2024-03-23T23:34:05;14.40;;;6.23;;
67712;SDS011;67640;55.784;49.138;2024-03-23T23:39:24;13.62;;;5.53;;
67712;SDS011;67640;55.784;49.138;2024-03-23T23:44:44;15.13;;;5.87;;
67712;SDS011;67640;55.784;49.138;2024-03-23T23:49:48;16.97;;;5.57;;
67712;SDS011;67640;55.784;49.138;2024-03-23T23:55:07;17.70;;;5.50;;
